createdAt,value
2019-02-28T00:01:32.144Z,19.27
2019-02-28T00:04:03.513Z,16.93
2019-02-28T00:06:35.926Z,19.43
2019-02-28T00:09:10.427Z,20.20
2019-02-28T00:11:42.445Z,21.27
2019-02-28T00:14:12.941Z,19.07
2019-02-28T00:16:44.441Z,21.63
2019-02-28T00:19:15.197Z,20.50
2019-02-28T00:21:46.092Z,21.33
2019-02-28T00:24:16.564Z,20.70
2019-02-28T00:26:47.951Z,21.13
2019-02-28T00:29:18.522Z,21.02
2019-02-28T00:31:49.897Z,20.87
2019-02-28T00:34:21.166Z,20.30
2019-02-28T00:36:53.439Z,21.50
2019-02-28T00:39:24.328Z,20.33
2019-02-28T00:41:54.848Z,20.77
2019-02-28T00:44:28.043Z,19.80
2019-02-28T00:46:58.857Z,22.53
2019-02-28T00:49:29.348Z,18.17
2019-02-28T00:52:01.602Z,18.40
2019-02-28T00:54:32.278Z,21.03
2019-02-28T00:57:02.746Z,20.77
2019-02-28T00:59:33.411Z,18.93
2019-02-28T01:02:03.958Z,17.50
2019-02-28T01:04:34.472Z,17.70
2019-02-28T01:07:05.153Z,22.47
2019-02-28T01:09:35.693Z,26.03
2019-02-28T01:12:06.385Z,19.73
2019-02-28T01:14:37.120Z,18.77
2019-02-28T01:17:08.540Z,19.50
2019-02-28T01:19:41.341Z,16.30
2019-02-28T01:22:11.151Z,17.00
2019-02-28T01:24:41.584Z,18.60
2019-02-28T01:27:12.087Z,15.77
2019-02-28T01:29:42.601Z,19.00
2019-02-28T01:32:15.341Z,17.70
2019-02-28T01:34:45.278Z,19.07
2019-02-28T01:37:16.004Z,16.70
2019-02-28T01:39:46.506Z,16.07
2019-02-28T01:42:20.089Z,18.77
2019-02-28T01:44:49.594Z,20.73
2019-02-28T01:47:21.000Z,16.50
2019-02-28T01:49:52.281Z,17.80
2019-02-28T01:52:22.859Z,15.57
2019-02-28T01:54:53.380Z,17.97
2019-02-28T01:57:23.855Z,15.57
2019-02-28T01:59:54.617Z,15.43
2019-02-28T02:02:25.387Z,16.33
2019-02-28T02:04:56.023Z,16.67
2019-02-28T02:07:26.520Z,16.93
2019-02-28T02:09:57.219Z,16.67
2019-02-28T02:12:31.271Z,16.63
2019-02-28T02:14:59.943Z,14.50
2019-02-28T02:17:32.235Z,13.60
2019-02-28T02:20:02.849Z,14.03
2019-02-28T02:22:34.394Z,11.93
2019-02-28T02:25:05.073Z,13.57
2019-02-28T02:27:35.529Z,15.77
2019-02-28T02:30:15.271Z,16.10
2019-02-28T02:32:41.934Z,15.77
2019-02-28T02:35:12.379Z,15.67
2019-02-28T02:37:42.847Z,15.03
2019-02-28T02:40:13.559Z,16.30
2019-02-28T02:42:48.665Z,17.43
2019-02-28T02:45:16.689Z,19.87
2019-02-28T02:47:47.154Z,18.43
2019-02-28T02:50:17.616Z,16.30
2019-02-28T02:52:48.110Z,20.43
2019-02-28T02:55:18.564Z,15.77
2019-02-28T02:57:51.733Z,17.53
2019-02-28T03:00:21.449Z,18.13
2019-02-28T03:02:52.271Z,13.80
2019-02-28T03:05:22.718Z,14.80
2019-02-28T03:07:59.509Z,17.93
2019-02-28T03:10:25.460Z,20.77
2019-02-28T03:12:56.114Z,18.20
2019-02-28T03:15:27.324Z,16.50
2019-02-28T03:17:57.989Z,15.07
2019-02-28T03:20:28.449Z,16.33
2019-02-28T03:23:02.245Z,16.00
2019-02-28T03:25:31.097Z,18.27
2019-02-28T03:28:01.566Z,18.93
2019-02-28T03:30:33.414Z,20.60
2019-02-28T03:33:04.240Z,18.90
2019-02-28T03:35:43.176Z,16.97
2019-02-28T03:38:11.527Z,17.40
2019-02-28T03:40:40.289Z,22.90
2019-02-28T03:43:11.307Z,19.30
2019-02-28T03:45:41.788Z,18.17
2019-02-28T03:48:12.247Z,19.23
2019-02-28T03:50:42.715Z,22.93
2019-02-28T03:53:19.655Z,14.70
2019-02-28T03:55:45.350Z,17.20
2019-02-28T03:58:15.799Z,17.90
2019-02-28T04:00:46.497Z,17.57
2019-02-28T04:03:16.952Z,16.30
2019-02-28T04:05:47.735Z,17.47
2019-02-28T04:08:18.202Z,14.80
2019-02-28T04:10:48.752Z,17.20
2019-02-28T04:13:22.586Z,15.77
2019-02-28T04:16:07.578Z,18.80
2019-02-28T04:18:25.458Z,19.17
2019-02-28T04:20:55.965Z,14.33
2019-02-28T04:23:26.417Z,15.87
2019-02-28T04:26:01.451Z,14.63
2019-02-28T04:28:32.017Z,17.77
2019-02-28T04:31:02.500Z,14.63
2019-02-28T04:33:37.526Z,13.43
2019-02-28T04:36:06.712Z,15.63
2019-02-28T04:38:51.681Z,15.70
2019-02-28T04:41:32.484Z,15.77
2019-02-28T04:44:01.805Z,14.03
2019-02-28T04:46:32.652Z,12.50
2019-02-28T04:49:03.257Z,14.37
2019-02-28T04:51:33.717Z,16.27
2019-02-28T04:54:04.174Z,16.70
2019-02-28T04:56:36.840Z,14.53
2019-02-28T04:59:07.412Z,12.57
2019-02-28T05:01:37.860Z,14.10
2019-02-28T05:04:08.301Z,12.73
2019-02-28T05:06:38.768Z,13.73
2019-02-28T05:09:10.678Z,14.73
2019-02-28T05:11:41.676Z,13.40
2019-02-28T05:14:12.749Z,14.00
2019-02-28T05:16:46.937Z,14.33
2019-02-28T05:19:15.662Z,12.90
2019-02-28T05:21:46.505Z,11.27
2019-02-28T05:24:16.949Z,13.77
2019-02-28T05:26:48.375Z,14.90
2019-02-28T05:29:18.826Z,15.90
2019-02-28T05:31:49.264Z,18.43
2019-02-28T05:34:20.234Z,15.87
2019-02-28T05:36:53.190Z,12.17
2019-02-28T05:39:23.965Z,17.10
2019-02-28T05:41:54.436Z,13.77
2019-02-28T05:44:25.243Z,13.97
2019-02-28T05:46:58.172Z,16.80
2019-02-28T05:49:27.853Z,14.17
2019-02-28T05:51:59.073Z,11.07
2019-02-28T05:54:30.326Z,12.43
2019-02-28T05:57:00.791Z,13.73
2019-02-28T05:59:31.250Z,15.83
2019-02-28T06:02:01.712Z,13.20
2019-02-28T06:04:34.192Z,13.20
2019-02-28T06:07:04.625Z,14.27
2019-02-28T06:09:35.133Z,14.40
2019-02-28T06:12:06.584Z,16.13
2019-02-28T06:14:38.285Z,14.50
2019-02-28T06:17:08.843Z,18.10
2019-02-28T06:19:40.251Z,20.83
2019-02-28T06:22:11.451Z,14.83
2019-02-28T06:24:44.774Z,15.90
2019-02-28T06:27:14.314Z,20.50
2019-02-28T06:29:44.798Z,21.13
2019-02-28T06:32:15.276Z,16.07
2019-02-28T06:34:45.757Z,19.63
2019-02-28T06:37:16.210Z,18.70
2019-02-28T06:39:46.689Z,20.47
2019-02-28T06:42:17.140Z,15.20
2019-02-28T06:44:47.651Z,16.77
2019-02-28T06:47:18.097Z,15.33
2019-02-28T06:49:48.543Z,16.63
2019-02-28T06:52:19.013Z,17.23
2019-02-28T06:54:49.873Z,18.87
2019-02-28T06:57:20.340Z,75.62
2019-02-28T06:59:51.176Z,28.63
2019-02-28T07:02:21.626Z,17.87
2019-02-28T07:04:52.352Z,17.27
2019-02-28T07:07:22.837Z,22.10
2019-02-28T07:09:53.874Z,18.20
2019-02-28T07:12:29.371Z,17.03
2019-02-28T07:14:57.753Z,18.77
2019-02-28T07:17:28.197Z,15.40
2019-02-28T07:20:01.953Z,18.33
2019-02-28T07:22:31.394Z,18.40
2019-02-28T07:25:01.852Z,17.93
2019-02-28T07:27:32.386Z,16.90
2019-02-28T07:30:02.844Z,21.43
2019-02-28T07:32:34.395Z,19.53
2019-02-28T07:35:06.232Z,23.87
2019-02-28T07:37:36.674Z,21.13
2019-02-28T07:40:08.421Z,21.03
2019-02-28T07:42:40.736Z,22.53
2019-02-28T07:45:12.226Z,20.40
2019-02-28T07:47:43.817Z,18.33
2019-02-28T07:50:20.384Z,19.87
2019-02-28T07:52:53.143Z,17.27
2019-02-28T07:55:27.140Z,20.93
2019-02-28T07:57:57.835Z,18.17
2019-02-28T08:00:28.552Z,17.53
2019-02-28T08:02:59.323Z,19.20
2019-02-28T08:05:31.048Z,15.97
2019-02-28T08:08:01.728Z,18.07
2019-02-28T08:10:32.296Z,17.57
2019-02-28T08:13:04.009Z,16.80
2019-02-28T08:15:35.748Z,20.13
2019-02-28T08:18:06.314Z,18.70
2019-02-28T08:20:36.997Z,16.47
2019-02-28T08:23:07.594Z,19.13
2019-02-28T08:25:39.624Z,15.87
2019-02-28T08:28:12.062Z,17.20
2019-02-28T08:30:42.880Z,18.27
2019-02-28T08:33:17.409Z,17.90
2019-02-28T08:35:48.026Z,17.43
2019-02-28T08:38:18.495Z,19.07
2019-02-28T08:40:51.552Z,18.87
2019-02-28T08:43:27.225Z,18.13
2019-02-28T08:45:53.431Z,17.30
2019-02-28T08:48:24.871Z,20.03
2019-02-28T08:50:56.810Z,19.60
2019-02-28T08:53:27.232Z,15.83
2019-02-28T08:55:57.680Z,19.10
2019-02-28T08:58:28.196Z,21.27
2019-02-28T09:00:59.025Z,18.70
2019-02-28T09:03:29.495Z,19.47
2019-02-28T09:06:00.872Z,21.37
2019-02-28T09:08:32.137Z,17.77
2019-02-28T09:11:02.693Z,19.20
2019-02-28T09:13:33.124Z,17.03
2019-02-28T09:16:04.957Z,19.50
2019-02-28T09:18:36.110Z,20.10
2019-02-28T09:21:07.525Z,21.10
2019-02-28T09:23:38.493Z,22.20
2019-02-28T09:26:09.148Z,23.50
2019-02-28T09:28:39.614Z,23.07
2019-02-28T09:31:10.075Z,22.10
2019-02-28T09:33:40.573Z,22.87
2019-02-28T09:36:11.046Z,24.83
2019-02-28T09:38:42.292Z,20.53
2019-02-28T09:41:14.110Z,21.23
2019-02-28T09:43:44.627Z,21.02
2019-02-28T09:46:15.714Z,22.83
2019-02-28T09:48:48.114Z,22.10
2019-02-28T09:51:18.582Z,20.85
2019-02-28T09:53:50.950Z,20.68
2019-02-28T09:56:21.526Z,21.30
2019-02-28T09:58:52.462Z,21.63
2019-02-28T10:01:24.454Z,20.30
2019-02-28T10:03:56.209Z,19.98
2019-02-28T10:06:26.906Z,23.25
2019-02-28T10:08:57.751Z,20.17
2019-02-28T10:11:31.776Z,20.10
2019-02-28T10:14:00.861Z,20.20
2019-02-28T10:16:31.434Z,21.57
2019-02-28T10:19:02.893Z,18.60
2019-02-28T10:21:36.477Z,19.90
2019-02-28T10:24:05.569Z,19.57
2019-02-28T10:26:36.061Z,19.37
2019-02-28T10:29:07.441Z,17.80
2019-02-28T10:31:38.686Z,18.15
2019-02-28T10:34:10.496Z,18.52
2019-02-28T10:36:41.052Z,17.50
2019-02-28T10:39:12.577Z,17.65
2019-02-28T10:41:43.066Z,17.82
2019-02-28T10:44:13.612Z,19.57
2019-02-28T10:46:44.064Z,18.32
2019-02-28T10:49:16.815Z,17.65
2019-02-28T10:51:49.681Z,18.87
2019-02-28T10:54:19.978Z,20.52
2019-02-28T10:56:50.471Z,20.80
2019-02-28T10:59:21.371Z,16.87
2019-02-28T11:01:53.221Z,15.77
2019-02-28T11:04:23.996Z,19.45
2019-02-28T11:06:54.509Z,18.60
2019-02-28T11:09:25.493Z,17.97
2019-02-28T11:11:56.474Z,17.00
2019-02-28T11:14:26.949Z,17.25
2019-02-28T11:16:59.426Z,16.30
2019-02-28T11:19:29.982Z,15.60
2019-02-28T11:22:01.567Z,17.70
2019-02-28T11:24:32.808Z,16.00
2019-02-28T11:27:04.741Z,14.63
2019-02-28T11:29:36.304Z,14.33
2019-02-28T11:32:07.135Z,16.73
2019-02-28T11:34:37.615Z,17.20
2019-02-28T11:37:08.897Z,16.43
2019-02-28T11:39:40.315Z,17.10
2019-02-28T11:42:10.757Z,20.27
2019-02-28T11:44:43.500Z,18.27
2019-02-28T11:47:13.526Z,16.10
2019-02-28T11:49:44.103Z,15.27
2019-02-28T11:52:15.995Z,15.63
2019-02-28T11:54:46.669Z,18.37
2019-02-28T11:57:17.191Z,15.67
2019-02-28T11:59:47.662Z,14.90
2019-02-28T12:02:20.128Z,14.67
2019-02-28T12:04:50.418Z,14.40
2019-02-28T12:07:20.900Z,17.50
2019-02-28T12:09:54.486Z,14.33
2019-02-28T12:12:23.616Z,13.50
2019-02-28T12:14:54.240Z,13.63
2019-02-28T12:17:25.526Z,16.10
2019-02-28T12:19:57.106Z,13.70
2019-02-28T12:22:27.678Z,12.33
2019-02-28T12:24:58.142Z,13.45
2019-02-28T12:27:28.616Z,13.00
2019-02-28T12:29:59.353Z,10.80
2019-02-28T12:32:30.085Z,11.50
2019-02-28T12:35:01.734Z,12.35
2019-02-28T12:37:34.400Z,13.53
2019-02-28T12:40:07.446Z,11.63
2019-02-28T12:42:38.285Z,14.07
2019-02-28T12:45:14.922Z,13.07
2019-02-28T12:47:45.940Z,18.07
2019-02-28T12:50:16.514Z,12.85
2019-02-28T12:52:49.946Z,12.55
2019-02-28T12:55:19.621Z,13.03
2019-02-28T12:57:51.641Z,13.10
2019-02-28T13:00:31.476Z,11.00
2019-02-28T13:03:01.969Z,12.97
2019-02-28T13:05:32.836Z,12.03
2019-02-28T13:08:05.719Z,12.53
2019-02-28T13:10:35.725Z,13.88
2019-02-28T13:13:07.704Z,14.03
2019-02-28T13:15:38.510Z,14.53
2019-02-28T13:18:09.545Z,14.97
2019-02-28T13:20:40.792Z,17.20
2019-02-28T13:23:11.251Z,16.53
2019-02-28T13:25:41.838Z,14.33
2019-02-28T13:28:12.313Z,15.23
2019-02-28T13:30:49.087Z,18.02
2019-02-28T13:33:16.081Z,15.60
2019-02-28T13:35:47.600Z,24.40
2019-02-28T13:38:19.739Z,16.63
2019-02-28T13:40:50.535Z,16.20
2019-02-28T13:43:22.778Z,17.45
2019-02-28T13:45:55.807Z,22.58
2019-02-28T13:48:29.965Z,17.77
2019-02-28T13:50:59.315Z,18.77
2019-02-28T13:53:31.749Z,18.03
2019-02-28T13:56:04.846Z,17.57
2019-02-28T13:58:34.646Z,17.98
2019-02-28T14:01:05.710Z,22.87
2019-02-28T14:03:36.190Z,17.90
2019-02-28T14:06:06.860Z,21.50
2019-02-28T14:08:37.313Z,19.43
2019-02-28T14:11:10.265Z,18.40
2019-02-28T14:13:41.638Z,17.52
2019-02-28T14:16:12.506Z,17.40
2019-02-28T14:18:45.509Z,18.67
2019-02-28T14:21:16.195Z,19.17
2019-02-28T14:23:46.740Z,19.05
2019-02-28T14:26:18.314Z,20.17
2019-02-28T14:28:48.776Z,20.60
2019-02-28T14:31:19.258Z,18.63
2019-02-28T14:33:51.431Z,19.80
2019-02-28T14:36:22.226Z,18.00
2019-02-28T14:38:53.454Z,20.30
2019-02-28T14:41:24.629Z,21.25
2019-02-28T14:43:56.945Z,18.10
2019-02-28T14:46:27.512Z,16.65
2019-02-28T14:48:57.968Z,18.62
2019-02-28T14:51:29.339Z,16.57
2019-02-28T14:53:59.931Z,18.62
2019-02-28T14:56:30.514Z,17.48
2019-02-28T14:59:00.965Z,17.62
2019-02-28T15:01:31.544Z,16.55
2019-02-28T15:04:02.736Z,17.23
2019-02-28T15:06:33.490Z,18.17
2019-02-28T15:09:05.792Z,16.53
2019-02-28T15:11:38.168Z,15.53
2019-02-28T15:14:09.869Z,16.45
2019-02-28T15:16:40.366Z,15.83
2019-02-28T15:19:10.870Z,12.95
2019-02-28T15:21:42.764Z,16.20
2019-02-28T15:24:13.777Z,18.92
2019-02-28T15:26:44.274Z,14.73
2019-02-28T15:29:14.768Z,12.60
2019-02-28T15:31:45.368Z,11.60
2019-02-28T15:34:16.174Z,11.57
2019-02-28T15:36:46.649Z,9.50
2019-02-28T15:39:18.208Z,8.88
2019-02-28T15:41:48.997Z,12.10
2019-02-28T15:44:19.471Z,11.40
2019-02-28T15:46:49.935Z,10.50
2019-02-28T15:49:20.566Z,9.80
2019-02-28T15:51:51.537Z,7.70
2019-02-28T15:54:25.363Z,9.78
2019-02-28T15:56:55.392Z,10.90
2019-02-28T15:59:26.973Z,9.47
2019-02-28T16:01:57.521Z,10.72
2019-02-28T16:04:28.022Z,13.03
2019-02-28T16:06:58.567Z,12.73
2019-02-28T16:09:29.035Z,10.40
2019-02-28T16:11:59.764Z,12.80
2019-02-28T16:14:31.539Z,11.88
2019-02-28T16:17:03.540Z,11.77
2019-02-28T16:19:34.389Z,11.48
2019-02-28T16:22:05.164Z,11.30
2019-02-28T16:24:36.670Z,20.15
2019-02-28T16:27:07.905Z,12.80
2019-02-28T16:29:38.401Z,12.33
2019-02-28T16:32:08.930Z,12.23
2019-02-28T16:34:42.422Z,11.83
2019-02-28T16:37:11.598Z,14.40
2019-02-28T16:39:42.097Z,14.15
2019-02-28T16:42:12.921Z,13.27
2019-02-28T16:44:43.452Z,13.07
2019-02-28T16:47:14.054Z,12.90
2019-02-28T16:49:45.213Z,16.12
2019-02-28T16:52:16.006Z,14.47
2019-02-28T16:54:46.473Z,14.93
2019-02-28T16:57:17.074Z,15.73
2019-02-28T16:59:47.672Z,14.43
2019-02-28T17:02:18.382Z,16.40
2019-02-28T17:04:51.892Z,15.68
2019-02-28T17:07:21.491Z,12.70
2019-02-28T17:09:52.199Z,13.67
2019-02-28T17:12:32.722Z,13.22
2019-02-28T17:15:05.517Z,15.93
2019-02-28T17:17:58.630Z,14.53
2019-02-28T17:20:29.332Z,16.17
2019-02-28T17:23:01.447Z,16.00
2019-02-28T17:25:32.158Z,14.93
2019-02-28T17:28:16.574Z,15.85
2019-02-28T17:31:11.503Z,16.57
2019-02-28T17:33:43.285Z,15.73
2019-02-28T17:36:13.594Z,15.33
2019-02-28T17:38:44.124Z,12.80
2019-02-28T17:41:14.605Z,14.30
2019-02-28T17:44:05.692Z,15.10
2019-02-28T17:46:37.308Z,13.35
2019-02-28T17:49:41.061Z,14.63
2019-02-28T17:52:26.029Z,14.97
2019-02-28T17:55:32.543Z,15.18
2019-02-28T17:58:11.997Z,14.80
2019-02-28T18:01:31.809Z,13.83
2019-02-28T18:04:56.260Z,14.87
2019-02-28T18:07:57.829Z,14.30
2019-02-28T18:10:59.161Z,14.78
2019-02-28T18:13:55.250Z,17.07
2019-02-28T18:17:02.204Z,12.88
2019-02-28T18:20:18.098Z,16.60
2019-02-28T18:23:28.947Z,15.05
2019-02-28T18:26:39.262Z,12.18
2019-02-28T18:29:57.054Z,13.43
2019-02-28T18:32:29.750Z,13.67
2019-02-28T18:35:00.100Z,14.78
2019-02-28T18:37:30.673Z,13.15
2019-02-28T18:40:01.569Z,13.25
2019-02-28T18:42:32.377Z,15.03
2019-02-28T18:45:02.911Z,13.20
2019-02-28T18:47:35.918Z,18.02
2019-02-28T18:50:07.536Z,14.90
2019-02-28T18:52:38.232Z,12.73
2019-02-28T18:55:09.848Z,14.27
2019-02-28T18:57:40.456Z,15.40
2019-02-28T19:00:13.580Z,14.47
2019-02-28T19:02:44.253Z,11.87
2019-02-28T19:05:16.841Z,12.30
2019-02-28T19:07:47.426Z,12.80
2019-02-28T19:10:18.770Z,12.58
2019-02-28T19:12:50.570Z,11.65
2019-02-28T19:15:22.745Z,13.07
2019-02-28T19:17:53.561Z,12.45
2019-02-28T19:20:27.397Z,12.88
2019-02-28T19:22:58.237Z,13.40
2019-02-28T19:25:29.122Z,12.25
2019-02-28T19:27:59.742Z,12.80
2019-02-28T19:30:30.357Z,11.40
2019-02-28T19:33:01.313Z,11.40
2019-02-28T19:35:32.214Z,11.00
2019-02-28T19:38:04.058Z,11.90
2019-02-28T19:40:35.786Z,9.57
2019-02-28T19:43:06.436Z,11.07
2019-02-28T19:45:37.962Z,10.82
2019-02-28T19:48:22.626Z,12.58
2019-02-28T19:51:07.916Z,11.65
2019-02-28T19:53:43.281Z,11.20
2019-02-28T19:56:13.910Z,10.15
2019-02-28T19:58:44.509Z,11.95
2019-02-28T20:01:19.116Z,10.90
2019-02-28T20:03:47.771Z,10.37
2019-02-28T20:06:18.279Z,11.93
2019-02-28T20:08:49.166Z,8.07
2019-02-28T20:11:19.823Z,9.80
2019-02-28T20:13:51.095Z,11.25
2019-02-28T20:16:21.626Z,8.13
2019-02-28T20:18:52.204Z,8.10
2019-02-28T20:21:23.194Z,8.55
2019-02-28T20:23:53.914Z,7.60
2019-02-28T20:26:25.664Z,8.45
2019-02-28T20:28:56.209Z,8.98
2019-02-28T20:31:27.115Z,9.73
2019-02-28T20:33:57.912Z,10.58
2019-02-28T20:36:28.594Z,9.17
2019-02-28T20:39:01.220Z,7.77
2019-02-28T20:41:33.401Z,7.03
2019-02-28T20:44:03.885Z,8.05
2019-02-28T20:46:34.437Z,8.43
2019-02-28T20:49:05.011Z,8.20
2019-02-28T20:51:35.831Z,8.03
2019-02-28T20:54:06.297Z,8.53
2019-02-28T20:56:36.840Z,7.53
2019-02-28T20:59:07.660Z,7.90
2019-02-28T21:01:38.203Z,9.43
2019-02-28T21:04:09.027Z,7.95
2019-02-28T21:06:39.611Z,7.73
2019-02-28T21:09:12.590Z,8.15
2019-02-28T21:11:43.250Z,6.87
2019-02-28T21:14:14.066Z,6.53
2019-02-28T21:16:44.618Z,6.58
2019-02-28T21:19:15.073Z,6.42
2019-02-28T21:21:45.520Z,6.37
2019-02-28T21:24:16.170Z,8.87
2019-02-28T21:26:48.187Z,5.80
2019-02-28T21:29:18.716Z,6.63
2019-02-28T21:31:50.355Z,5.73
2019-02-28T21:34:20.947Z,5.43
2019-02-28T21:36:51.581Z,5.72
2019-02-28T21:39:22.110Z,4.60
2019-02-28T21:41:52.770Z,6.10
2019-02-28T21:44:23.870Z,6.63
2019-02-28T21:46:54.393Z,5.85
2019-02-28T21:49:25.149Z,3.97
2019-02-28T21:51:55.600Z,7.37
2019-02-28T21:54:26.358Z,5.78
2019-02-28T21:56:56.916Z,5.07
2019-02-28T21:59:28.372Z,4.22
2019-02-28T22:01:58.993Z,5.58
2019-02-28T22:04:29.592Z,4.58
2019-02-28T22:07:00.139Z,6.17
2019-02-28T22:09:31.137Z,4.77
2019-02-28T22:12:01.913Z,6.70
2019-02-28T22:14:32.528Z,4.60
2019-02-28T22:17:03.354Z,4.67
2019-02-28T22:19:33.913Z,6.57
2019-02-28T22:22:04.453Z,5.70
2019-02-28T22:24:36.297Z,7.10
2019-02-28T22:27:06.797Z,5.95
2019-02-28T22:29:37.249Z,6.78
2019-02-28T22:32:24.141Z,7.35
2019-02-28T22:35:20.744Z,4.90
2019-02-28T22:37:51.290Z,5.47
2019-02-28T22:40:21.823Z,5.17
2019-02-28T22:42:52.342Z,5.10
2019-02-28T22:45:22.824Z,6.10
2019-02-28T22:47:53.325Z,8.10
2019-02-28T22:50:23.809Z,5.58
2019-02-28T22:52:55.028Z,4.80
2019-02-28T22:55:25.508Z,4.95
2019-02-28T22:57:56.199Z,6.60
2019-02-28T23:00:38.093Z,4.33
2019-02-28T23:03:10.280Z,5.97
2019-02-28T23:05:40.780Z,5.80
2019-02-28T23:08:11.997Z,4.72
2019-02-28T23:10:42.845Z,6.63
2019-02-28T23:13:13.326Z,4.97
2019-02-28T23:15:43.779Z,4.03
2019-02-28T23:18:14.265Z,3.67
2019-02-28T23:20:44.907Z,5.15
2019-02-28T23:23:15.450Z,5.35
2019-02-28T23:25:46.993Z,4.37
2019-02-28T23:28:31.998Z,4.30
2019-02-28T23:31:51.451Z,4.17
2019-02-28T23:34:35.978Z,4.43
2019-02-28T23:37:06.462Z,4.95
2019-02-28T23:39:37.900Z,4.33
2019-02-28T23:42:08.412Z,4.12
2019-02-28T23:44:38.900Z,4.33
2019-02-28T23:47:09.837Z,4.77
2019-02-28T23:49:40.317Z,5.53
2019-02-28T23:52:11.103Z,4.28
2019-02-28T23:54:41.897Z,3.83
2019-02-28T23:57:12.378Z,3.17
2019-02-28T23:59:42.824Z,4.45
